sensor_id;sensor_type;location;lat;lon;timestamp;P1;durP1;ratioP1;P2;durP2;ratioP2
12348;SDS011;5974;42.710;27.258;2022-08-01T00:02:05;11.20;;;5.93;;
12348;SDS011;5974;42.710;27.258;2022-08-01T00:04:32;6.50;;;5.90;;
12348;SDS011;5974;42.710;27.258;2022-08-01T00:06:58;7.57;;;6.80;;
12348;SDS011;5974;42.710;27.258;2022-08-01T00:09:25;7.17;;;6.57;;
12348;SDS011;5974;42.710;27.258;2022-08-01T00:11:52;7.83;;;7.23;;
12348;SDS011;5974;42.710;27.258;2022-08-01T00:14:18;8.77;;;8.07;;
12348;SDS011;5974;42.710;27.258;2022-08-01T00:16:47;8.90;;;8.10;;
12348;SDS011;5974;42.710;27.258;2022-08-01T00:19:13;8.73;;;7.93;;
12348;SDS011;5974;42.710;27.258;2022-08-01T00:21:40;8.87;;;8.20;;
12348;SDS011;5974;42.710;27.258;2022-08-01T00:24:06;7.90;;;7.30;;
12348;SDS011;5974;42.710;27.258;2022-08-01T00:26:33;8.17;;;7.57;;
12348;SDS011;5974;42.710;27.258;2022-08-01T00:28:59;5.13;;;4.77;;
12348;SDS011;5974;42.710;27.258;2022-08-01T00:31:26;5.53;;;3.13;;
12348;SDS011;5974;42.710;27.258;2022-08-01T00:33:54;2.57;;;2.47;;
12348;SDS011;5974;42.710;27.258;2022-08-01T00:36:20;2.90;;;2.43;;
12348;SDS011;5974;42.710;27.258;2022-08-01T00:38:47;3.17;;;2.97;;
12348;SDS011;5974;42.710;27.258;2022-08-01T00:41:14;3.13;;;2.93;;
12348;SDS011;5974;42.710;27.258;2022-08-01T00:43:40;3.03;;;2.70;;
12348;SDS011;5974;42.710;27.258;2022-08-01T00:46:07;3.23;;;3.03;;
12348;SDS011;5974;42.710;27.258;2022-08-01T00:48:33;3.00;;;2.80;;
12348;SDS011;5974;42.710;27.258;2022-08-01T00:51:01;2.93;;;2.73;;
12348;SDS011;5974;42.710;27.258;2022-08-01T00:53:28;6.87;;;2.90;;
12348;SDS011;5974;42.710;27.258;2022-08-01T00:55:55;2.33;;;2.13;;
12348;SDS011;5974;42.710;27.258;2022-08-01T00:58:22;2.50;;;2.30;;
12348;SDS011;5974;42.710;27.258;2022-08-01T01:00:49;3.17;;;1.73;;
12348;SDS011;5974;42.710;27.258;2022-08-01T01:03:15;2.00;;;1.80;;
12348;SDS011;5974;42.710;27.258;2022-08-01T01:05:44;1.73;;;1.63;;
12348;SDS011;5974;42.710;27.258;2022-08-01T01:08:17;1.70;;;1.60;;
12348;SDS011;5974;42.710;27.258;2022-08-01T01:10:46;1.80;;;1.60;;
12348;SDS011;5974;42.710;27.258;2022-08-01T01:13:16;1.97;;;1.70;;
12348;SDS011;5974;42.710;27.258;2022-08-01T01:15:46;2.53;;;1.70;;
12348;SDS011;5974;42.710;27.258;2022-08-01T01:18:14;2.03;;;1.90;;
12348;SDS011;5974;42.710;27.258;2022-08-01T01:20:43;1.93;;;1.80;;
12348;SDS011;5974;42.710;27.258;2022-08-01T01:23:15;1.70;;;1.60;;
12348;SDS011;5974;42.710;27.258;2022-08-01T01:25:51;2.30;;;1.50;;
12348;SDS011;5974;42.710;27.258;2022-08-01T01:28:22;3.33;;;1.70;;
12348;SDS011;5974;42.710;27.258;2022-08-01T01:30:54;1.90;;;1.80;;
12348;SDS011;5974;42.710;27.258;2022-08-01T01:33:21;1.97;;;1.87;;
12348;SDS011;5974;42.710;27.258;2022-08-01T01:35:52;1.87;;;1.77;;
12348;SDS011;5974;42.710;27.258;2022-08-01T01:38:19;1.60;;;1.60;;
12348;SDS011;5974;42.710;27.258;2022-08-01T01:40:47;1.80;;;1.67;;
12348;SDS011;5974;42.710;27.258;2022-08-01T01:43:15;2.77;;;1.83;;
12348;SDS011;5974;42.710;27.258;2022-08-01T01:45:41;1.93;;;1.73;;
12348;SDS011;5974;42.710;27.258;2022-08-01T01:48:12;1.90;;;1.70;;
12348;SDS011;5974;42.710;27.258;2022-08-01T01:50:39;3.57;;;1.70;;
12348;SDS011;5974;42.710;27.258;2022-08-01T01:53:06;1.70;;;1.70;;
12348;SDS011;5974;42.710;27.258;2022-08-01T01:55:35;4.83;;;1.80;;
12348;SDS011;5974;42.710;27.258;2022-08-01T01:58:03;2.00;;;1.70;;
12348;SDS011;5974;42.710;27.258;2022-08-01T02:00:31;2.97;;;2.17;;
12348;SDS011;5974;42.710;27.258;2022-08-01T02:02:58;5.80;;;2.30;;
12348;SDS011;5974;42.710;27.258;2022-08-01T02:05:29;3.20;;;2.10;;
12348;SDS011;5974;42.710;27.258;2022-08-01T02:07:56;2.17;;;1.80;;
12348;SDS011;5974;42.710;27.258;2022-08-01T02:10:23;3.47;;;2.03;;
12348;SDS011;5974;42.710;27.258;2022-08-01T02:12:51;3.93;;;1.80;;
12348;SDS011;5974;42.710;27.258;2022-08-01T02:15:17;3.07;;;1.80;;
12348;SDS011;5974;42.710;27.258;2022-08-01T02:17:46;1.70;;;1.60;;
12348;SDS011;5974;42.710;27.258;2022-08-01T02:20:14;11.17;;;2.00;;
12348;SDS011;5974;42.710;27.258;2022-08-01T02:22:44;1.93;;;1.83;;
12348;SDS011;5974;42.710;27.258;2022-08-01T02:25:15;5.63;;;2.00;;
12348;SDS011;5974;42.710;27.258;2022-08-01T02:27:43;4.10;;;1.73;;
12348;SDS011;5974;42.710;27.258;2022-08-01T02:30:12;2.60;;;1.73;;
12348;SDS011;5974;42.710;27.258;2022-08-01T02:32:41;4.87;;;2.03;;
12348;SDS011;5974;42.710;27.258;2022-08-01T02:35:09;1.73;;;1.63;;
12348;SDS011;5974;42.710;27.258;2022-08-01T02:37:38;1.70;;;1.60;;
12348;SDS011;5974;42.710;27.258;2022-08-01T02:40:06;1.70;;;1.60;;
12348;SDS011;5974;42.710;27.258;2022-08-01T02:42:34;1.87;;;1.40;;
12348;SDS011;5974;42.710;27.258;2022-08-01T02:45:01;4.27;;;1.73;;
12348;SDS011;5974;42.710;27.258;2022-08-01T02:47:28;2.77;;;1.90;;
12348;SDS011;5974;42.710;27.258;2022-08-01T02:49:55;1.60;;;1.50;;
12348;SDS011;5974;42.710;27.258;2022-08-01T02:52:22;17.20;;;2.43;;
12348;SDS011;5974;42.710;27.258;2022-08-01T02:54:51;7.47;;;2.00;;
12348;SDS011;5974;42.710;27.258;2022-08-01T02:57:20;2.10;;;1.50;;
12348;SDS011;5974;42.710;27.258;2022-08-01T02:59:47;2.83;;;1.90;;
12348;SDS011;5974;42.710;27.258;2022-08-01T03:02:15;3.33;;;1.73;;
12348;SDS011;5974;42.710;27.258;2022-08-01T03:04:43;3.07;;;1.63;;
12348;SDS011;5974;42.710;27.258;2022-08-01T03:07:10;7.73;;;1.57;;
12348;SDS011;5974;42.710;27.258;2022-08-01T03:09:38;1.70;;;1.53;;
12348;SDS011;5974;42.710;27.258;2022-08-01T03:12:06;2.63;;;1.63;;
12348;SDS011;5974;42.710;27.258;2022-08-01T03:14:36;3.47;;;1.80;;
12348;SDS011;5974;42.710;27.258;2022-08-01T03:17:04;3.40;;;1.60;;
12348;SDS011;5974;42.710;27.258;2022-08-01T03:19:31;1.63;;;1.53;;
12348;SDS011;5974;42.710;27.258;2022-08-01T03:21:59;3.03;;;1.70;;
12348;SDS011;5974;42.710;27.258;2022-08-01T03:24:28;1.60;;;1.50;;
12348;SDS011;5974;42.710;27.258;2022-08-01T03:26:57;1.60;;;1.50;;
12348;SDS011;5974;42.710;27.258;2022-08-01T03:29:25;2.50;;;1.40;;
12348;SDS011;5974;42.710;27.258;2022-08-01T03:31:53;2.50;;;1.67;;
12348;SDS011;5974;42.710;27.258;2022-08-01T03:34:20;1.70;;;1.60;;
12348;SDS011;5974;42.710;27.258;2022-08-01T03:36:48;8.83;;;2.10;;
12348;SDS011;5974;42.710;27.258;2022-08-01T03:39:16;9.30;;;1.73;;
12348;SDS011;5974;42.710;27.258;2022-08-01T03:41:46;4.20;;;1.40;;
12348;SDS011;5974;42.710;27.258;2022-08-01T03:44:15;2.30;;;1.50;;
12348;SDS011;5974;42.710;27.258;2022-08-01T03:46:45;4.30;;;1.80;;
12348;SDS011;5974;42.710;27.258;2022-08-01T03:49:17;5.20;;;1.90;;
12348;SDS011;5974;42.710;27.258;2022-08-01T03:51:44;2.07;;;1.50;;
12348;SDS011;5974;42.710;27.258;2022-08-01T03:54:13;2.23;;;1.40;;
12348;SDS011;5974;42.710;27.258;2022-08-01T03:56:40;1.87;;;1.43;;
12348;SDS011;5974;42.710;27.258;2022-08-01T03:59:08;3.40;;;1.70;;
12348;SDS011;5974;42.710;27.258;2022-08-01T04:01:35;4.07;;;2.07;;
12348;SDS011;5974;42.710;27.258;2022-08-01T04:04:02;4.47;;;2.30;;
12348;SDS011;5974;42.710;27.258;2022-08-01T04:06:32;2.93;;;2.27;;
12348;SDS011;5974;42.710;27.258;2022-08-01T04:08:58;2.60;;;2.20;;
12348;SDS011;5974;42.710;27.258;2022-08-01T04:11:26;3.17;;;2.00;;
12348;SDS011;5974;42.710;27.258;2022-08-01T04:13:54;4.30;;;1.83;;
12348;SDS011;5974;42.710;27.258;2022-08-01T04:16:21;2.67;;;1.40;;
12348;SDS011;5974;42.710;27.258;2022-08-01T04:18:47;4.53;;;1.60;;
12348;SDS011;5974;42.710;27.258;2022-08-01T04:21:14;1.73;;;1.63;;
12348;SDS011;5974;42.710;27.258;2022-08-01T04:23:43;7.60;;;1.90;;
12348;SDS011;5974;42.710;27.258;2022-08-01T04:26:11;4.63;;;1.60;;
12348;SDS011;5974;42.710;27.258;2022-08-01T04:28:38;4.43;;;1.50;;
12348;SDS011;5974;42.710;27.258;2022-08-01T04:31:06;1.83;;;1.73;;
12348;SDS011;5974;42.710;27.258;2022-08-01T04:33:34;1.60;;;1.47;;
12348;SDS011;5974;42.710;27.258;2022-08-01T04:36:01;5.60;;;1.60;;
12348;SDS011;5974;42.710;27.258;2022-08-01T04:38:30;3.00;;;1.23;;
12348;SDS011;5974;42.710;27.258;2022-08-01T04:40:58;2.37;;;1.40;;
12348;SDS011;5974;42.710;27.258;2022-08-01T04:43:26;4.33;;;1.40;;
12348;SDS011;5974;42.710;27.258;2022-08-01T04:45:53;3.33;;;1.30;;
12348;SDS011;5974;42.710;27.258;2022-08-01T04:48:20;3.43;;;1.50;;
12348;SDS011;5974;42.710;27.258;2022-08-01T04:50:48;4.72;;;1.30;;
12348;SDS011;5974;42.710;27.258;2022-08-01T04:53:14;3.35;;;1.40;;
12348;SDS011;5974;42.710;27.258;2022-08-01T04:55:42;2.83;;;1.65;;
12348;SDS011;5974;42.710;27.258;2022-08-01T04:58:10;6.60;;;1.42;;
12348;SDS011;5974;42.710;27.258;2022-08-01T05:00:37;1.20;;;1.20;;
12348;SDS011;5974;42.710;27.258;2022-08-01T05:03:04;1.58;;;1.20;;
12348;SDS011;5974;42.710;27.258;2022-08-01T05:05:31;1.50;;;1.40;;
12348;SDS011;5974;42.710;27.258;2022-08-01T05:07:57;1.65;;;1.30;;
12348;SDS011;5974;42.710;27.258;2022-08-01T05:10:25;2.15;;;1.58;;
12348;SDS011;5974;42.710;27.258;2022-08-01T05:12:52;4.13;;;1.40;;
12348;SDS011;5974;42.710;27.258;2022-08-01T05:15:20;5.10;;;1.42;;
12348;SDS011;5974;42.710;27.258;2022-08-01T05:17:46;3.05;;;1.45;;
12348;SDS011;5974;42.710;27.258;2022-08-01T05:20:13;2.50;;;1.55;;
12348;SDS011;5974;42.710;27.258;2022-08-01T05:22:40;1.65;;;1.50;;
12348;SDS011;5974;42.710;27.258;2022-08-01T05:25:07;1.35;;;1.33;;
12348;SDS011;5974;42.710;27.258;2022-08-01T05:27:34;1.45;;;1.40;;
12348;SDS011;5974;42.710;27.258;2022-08-01T05:30:05;1.77;;;1.50;;
12348;SDS011;5974;42.710;27.258;2022-08-01T05:32:33;2.38;;;1.30;;
12348;SDS011;5974;42.710;27.258;2022-08-01T05:34:59;6.32;;;1.40;;
12348;SDS011;5974;42.710;27.258;2022-08-01T05:37:26;1.45;;;1.38;;
12348;SDS011;5974;42.710;27.258;2022-08-01T05:39:53;5.80;;;1.33;;
12348;SDS011;5974;42.710;27.258;2022-08-01T05:42:19;3.72;;;1.85;;
12348;SDS011;5974;42.710;27.258;2022-08-01T05:44:46;2.05;;;1.42;;
12348;SDS011;5974;42.710;27.258;2022-08-01T05:47:12;3.42;;;1.40;;
12348;SDS011;5974;42.710;27.258;2022-08-01T05:49:40;2.50;;;1.30;;
12348;SDS011;5974;42.710;27.258;2022-08-01T05:52:07;4.28;;;1.30;;
12348;SDS011;5974;42.710;27.258;2022-08-01T05:54:33;1.70;;;1.20;;
12348;SDS011;5974;42.710;27.258;2022-08-01T05:57:00;4.47;;;1.45;;
12348;SDS011;5974;42.710;27.258;2022-08-01T05:59:26;3.72;;;1.20;;
12348;SDS011;5974;42.710;27.258;2022-08-01T06:01:53;2.63;;;1.42;;
12348;SDS011;5974;42.710;27.258;2022-08-01T06:04:20;1.15;;;1.15;;
12348;SDS011;5974;42.710;27.258;2022-08-01T06:06:48;1.88;;;1.20;;
12348;SDS011;5974;42.710;27.258;2022-08-01T06:09:16;5.30;;;1.30;;
12348;SDS011;5974;42.710;27.258;2022-08-01T06:11:42;2.78;;;1.60;;
12348;SDS011;5974;42.710;27.258;2022-08-01T06:14:09;3.08;;;1.30;;
12348;SDS011;5974;42.710;27.258;2022-08-01T06:16:35;3.10;;;1.40;;
12348;SDS011;5974;42.710;27.258;2022-08-01T06:19:02;1.15;;;1.15;;
12348;SDS011;5974;42.710;27.258;2022-08-01T06:21:29;2.17;;;1.30;;
12348;SDS011;5974;42.710;27.258;2022-08-01T06:23:57;5.00;;;1.30;;
12348;SDS011;5974;42.710;27.258;2022-08-01T06:26:23;1.65;;;1.33;;
12348;SDS011;5974;42.710;27.258;2022-08-01T06:28:50;2.60;;;1.30;;
12348;SDS011;5974;42.710;27.258;2022-08-01T06:31:16;1.38;;;1.27;;
12348;SDS011;5974;42.710;27.258;2022-08-01T06:33:43;6.78;;;1.60;;
12348;SDS011;5974;42.710;27.258;2022-08-01T06:36:09;4.70;;;1.67;;
12348;SDS011;5974;42.710;27.258;2022-08-01T06:38:36;7.57;;;1.98;;
12348;SDS011;5974;42.710;27.258;2022-08-01T06:41:04;1.50;;;1.30;;
12348;SDS011;5974;42.710;27.258;2022-08-01T06:43:31;4.75;;;1.13;;
12348;SDS011;5974;42.710;27.258;2022-08-01T06:45:58;2.92;;;1.65;;
12348;SDS011;5974;42.710;27.258;2022-08-01T06:48:24;3.13;;;1.65;;
12348;SDS011;5974;42.710;27.258;2022-08-01T06:50:51;6.63;;;1.83;;
12348;SDS011;5974;42.710;27.258;2022-08-01T06:53:32;2.72;;;1.40;;
12348;SDS011;5974;42.710;27.258;2022-08-01T06:55:59;1.50;;;1.40;;
12348;SDS011;5974;42.710;27.258;2022-08-01T06:58:27;3.85;;;1.52;;
12348;SDS011;5974;42.710;27.258;2022-08-01T07:00:53;2.38;;;1.55;;
12348;SDS011;5974;42.710;27.258;2022-08-01T07:03:20;1.92;;;1.50;;
12348;SDS011;5974;42.710;27.258;2022-08-01T07:05:47;2.40;;;1.60;;
12348;SDS011;5974;42.710;27.258;2022-08-01T07:08:13;1.90;;;1.50;;
12348;SDS011;5974;42.710;27.258;2022-08-01T07:10:40;2.85;;;1.83;;
12348;SDS011;5974;42.710;27.258;2022-08-01T07:13:07;2.40;;;1.50;;
12348;SDS011;5974;42.710;27.258;2022-08-01T07:15:35;6.05;;;1.50;;
12348;SDS011;5974;42.710;27.258;2022-08-01T07:18:01;2.00;;;1.38;;
12348;SDS011;5974;42.710;27.258;2022-08-01T07:20:29;1.60;;;1.50;;
12348;SDS011;5974;42.710;27.258;2022-08-01T07:22:55;2.88;;;1.38;;
12348;SDS011;5974;42.710;27.258;2022-08-01T07:25:22;1.30;;;1.30;;
12348;SDS011;5974;42.710;27.258;2022-08-01T07:27:49;2.45;;;1.40;;
12348;SDS011;5974;42.710;27.258;2022-08-01T07:30:15;1.63;;;1.40;;
12348;SDS011;5974;42.710;27.258;2022-08-01T07:32:43;2.60;;;1.38;;
12348;SDS011;5974;42.710;27.258;2022-08-01T07:35:10;6.80;;;1.50;;
12348;SDS011;5974;42.710;27.258;2022-08-01T07:37:36;5.53;;;1.52;;
12348;SDS011;5974;42.710;27.258;2022-08-01T07:40:03;3.30;;;1.45;;
12348;SDS011;5974;42.710;27.258;2022-08-01T07:42:30;3.17;;;1.25;;
12348;SDS011;5974;42.710;27.258;2022-08-01T07:44:57;1.42;;;1.42;;
12348;SDS011;5974;42.710;27.258;2022-08-01T07:47:24;4.97;;;1.90;;
12348;SDS011;5974;42.710;27.258;2022-08-01T07:49:52;1.30;;;1.30;;
12348;SDS011;5974;42.710;27.258;2022-08-01T07:52:19;1.75;;;1.50;;
12348;SDS011;5974;42.710;27.258;2022-08-01T07:54:45;1.50;;;1.40;;
12348;SDS011;5974;42.710;27.258;2022-08-01T07:57:12;1.45;;;1.30;;
12348;SDS011;5974;42.710;27.258;2022-08-01T07:59:38;2.63;;;1.60;;
12348;SDS011;5974;42.710;27.258;2022-08-01T08:02:05;1.55;;;1.45;;
12348;SDS011;5974;42.710;27.258;2022-08-01T08:04:31;1.95;;;1.52;;
12348;SDS011;5974;42.710;27.258;2022-08-01T08:06:59;1.83;;;1.33;;
12348;SDS011;5974;42.710;27.258;2022-08-01T08:09:26;1.50;;;1.23;;
12348;SDS011;5974;42.710;27.258;2022-08-01T08:11:53;3.50;;;1.30;;
12348;SDS011;5974;42.710;27.258;2022-08-01T08:14:19;2.50;;;1.38;;
12348;SDS011;5974;42.710;27.258;2022-08-01T08:16:47;6.00;;;1.42;;
12348;SDS011;5974;42.710;27.258;2022-08-01T08:19:14;4.82;;;1.15;;
12348;SDS011;5974;42.710;27.258;2022-08-01T08:21:41;3.28;;;1.55;;
12348;SDS011;5974;42.710;27.258;2022-08-01T08:24:09;1.00;;;1.00;;
12348;SDS011;5974;42.710;27.258;2022-08-01T08:26:45;1.10;;;1.00;;
12348;SDS011;5974;42.710;27.258;2022-08-01T08:29:12;1.77;;;0.95;;
12348;SDS011;5974;42.710;27.258;2022-08-01T08:31:38;2.27;;;1.10;;
12348;SDS011;5974;42.710;27.258;2022-08-01T08:34:05;1.97;;;1.00;;
12348;SDS011;5974;42.710;27.258;2022-08-01T08:36:32;3.87;;;1.10;;
12348;SDS011;5974;42.710;27.258;2022-08-01T08:38:58;1.20;;;1.10;;
12348;SDS011;5974;42.710;27.258;2022-08-01T08:41:28;2.10;;;1.37;;
12348;SDS011;5974;42.710;27.258;2022-08-01T08:43:55;4.07;;;1.20;;
12348;SDS011;5974;42.710;27.258;2022-08-01T08:46:22;5.03;;;1.30;;
12348;SDS011;5974;42.710;27.258;2022-08-01T08:48:49;2.40;;;1.20;;
12348;SDS011;5974;42.710;27.258;2022-08-01T08:51:17;2.40;;;1.27;;
12348;SDS011;5974;42.710;27.258;2022-08-01T08:53:45;1.60;;;1.00;;
12348;SDS011;5974;42.710;27.258;2022-08-01T08:56:13;2.63;;;1.20;;
12348;SDS011;5974;42.710;27.258;2022-08-01T08:58:41;3.30;;;1.17;;
12348;SDS011;5974;42.710;27.258;2022-08-01T09:01:09;2.63;;;1.00;;
12348;SDS011;5974;42.710;27.258;2022-08-01T09:03:37;1.63;;;1.20;;
12348;SDS011;5974;42.710;27.258;2022-08-01T09:06:04;1.33;;;0.90;;
12348;SDS011;5974;42.710;27.258;2022-08-01T09:08:32;2.43;;;1.20;;
12348;SDS011;5974;42.710;27.258;2022-08-01T09:10:59;1.20;;;1.20;;
12348;SDS011;5974;42.710;27.258;2022-08-01T09:13:25;4.80;;;1.40;;
12348;SDS011;5974;42.710;27.258;2022-08-01T09:15:54;4.60;;;1.07;;
12348;SDS011;5974;42.710;27.258;2022-08-01T09:18:29;2.37;;;1.10;;
12348;SDS011;5974;42.710;27.258;2022-08-01T09:21:13;2.03;;;1.13;;
12348;SDS011;5974;42.710;27.258;2022-08-01T09:23:42;2.43;;;1.10;;
12348;SDS011;5974;42.710;27.258;2022-08-01T09:26:10;0.80;;;0.80;;
12348;SDS011;5974;42.710;27.258;2022-08-01T09:28:37;10.73;;;1.27;;
12348;SDS011;5974;42.710;27.258;2022-08-01T09:31:09;1.57;;;0.93;;
12348;SDS011;5974;42.710;27.258;2022-08-01T09:33:49;1.87;;;1.00;;
12348;SDS011;5974;42.710;27.258;2022-08-01T09:36:16;2.90;;;1.40;;
12348;SDS011;5974;42.710;27.258;2022-08-01T09:38:43;2.70;;;0.90;;
12348;SDS011;5974;42.710;27.258;2022-08-01T09:41:10;1.17;;;1.00;;
12348;SDS011;5974;42.710;27.258;2022-08-01T09:43:37;1.70;;;1.00;;
12348;SDS011;5974;42.710;27.258;2022-08-01T09:46:04;2.93;;;1.10;;
12348;SDS011;5974;42.710;27.258;2022-08-01T09:48:33;2.33;;;1.20;;
12348;SDS011;5974;42.710;27.258;2022-08-01T09:50:59;1.13;;;1.03;;
12348;SDS011;5974;42.710;27.258;2022-08-01T09:53:26;1.30;;;0.93;;
12348;SDS011;5974;42.710;27.258;2022-08-01T09:55:52;6.63;;;1.10;;
12348;SDS011;5974;42.710;27.258;2022-08-01T09:58:20;3.23;;;1.10;;
12348;SDS011;5974;42.710;27.258;2022-08-01T10:00:57;3.50;;;1.10;;
12348;SDS011;5974;42.710;27.258;2022-08-01T10:03:25;1.20;;;1.10;;
12348;SDS011;5974;42.710;27.258;2022-08-01T10:05:55;2.90;;;1.10;;
12348;SDS011;5974;42.710;27.258;2022-08-01T10:08:23;3.00;;;1.30;;
12348;SDS011;5974;42.710;27.258;2022-08-01T10:11:05;5.03;;;1.20;;
12348;SDS011;5974;42.710;27.258;2022-08-01T10:13:32;2.30;;;1.10;;
12348;SDS011;5974;42.710;27.258;2022-08-01T10:15:59;2.43;;;1.30;;
12348;SDS011;5974;42.710;27.258;2022-08-01T10:18:26;4.30;;;1.20;;
12348;SDS011;5974;42.710;27.258;2022-08-01T10:20:56;2.60;;;1.07;;
12348;SDS011;5974;42.710;27.258;2022-08-01T10:23:24;2.63;;;1.00;;
12348;SDS011;5974;42.710;27.258;2022-08-01T10:25:51;3.73;;;1.30;;
12348;SDS011;5974;42.710;27.258;2022-08-01T10:28:20;6.03;;;1.20;;
12348;SDS011;5974;42.710;27.258;2022-08-01T10:30:47;4.43;;;1.00;;
12348;SDS011;5974;42.710;27.258;2022-08-01T10:33:14;1.40;;;0.97;;
12348;SDS011;5974;42.710;27.258;2022-08-01T10:35:41;2.33;;;0.97;;
12348;SDS011;5974;42.710;27.258;2022-08-01T10:38:12;2.50;;;1.10;;
12348;SDS011;5974;42.710;27.258;2022-08-01T10:40:39;1.83;;;1.40;;
12348;SDS011;5974;42.710;27.258;2022-08-01T10:43:06;13.27;;;1.57;;
12348;SDS011;5974;42.710;27.258;2022-08-01T10:45:32;2.83;;;1.20;;
12348;SDS011;5974;42.710;27.258;2022-08-01T10:48:02;1.70;;;1.00;;
12348;SDS011;5974;42.710;27.258;2022-08-01T10:50:32;4.80;;;1.13;;
12348;SDS011;5974;42.710;27.258;2022-08-01T10:53:06;2.40;;;1.00;;
12348;SDS011;5974;42.710;27.258;2022-08-01T10:55:45;4.60;;;1.30;;
12348;SDS011;5974;42.710;27.258;2022-08-01T10:58:12;6.33;;;1.30;;
12348;SDS011;5974;42.710;27.258;2022-08-01T11:00:39;1.17;;;1.00;;
12348;SDS011;5974;42.710;27.258;2022-08-01T11:03:05;1.77;;;1.20;;
12348;SDS011;5974;42.710;27.258;2022-08-01T11:05:32;3.00;;;1.13;;
12348;SDS011;5974;42.710;27.258;2022-08-01T11:08:01;1.63;;;1.23;;
12348;SDS011;5974;42.710;27.258;2022-08-01T11:10:30;1.10;;;1.10;;
12348;SDS011;5974;42.710;27.258;2022-08-01T11:13:01;1.17;;;1.10;;
12348;SDS011;5974;42.710;27.258;2022-08-01T11:15:32;1.03;;;1.00;;
12348;SDS011;5974;42.710;27.258;2022-08-01T11:17:59;2.83;;;1.20;;
12348;SDS011;5974;42.710;27.258;2022-08-01T11:20:26;3.07;;;1.17;;
12348;SDS011;5974;42.710;27.258;2022-08-01T11:29:10;3.00;;;1.10;;
12348;SDS011;5974;42.710;27.258;2022-08-01T11:31:33;2.13;;;1.07;;
12348;SDS011;5974;42.710;27.258;2022-08-01T11:34:00;2.27;;;1.23;;
12348;SDS011;5974;42.710;27.258;2022-08-01T11:36:27;1.70;;;1.30;;
12348;SDS011;5974;42.710;27.258;2022-08-01T11:41:35;2.70;;;1.47;;
12348;SDS011;5974;42.710;27.258;2022-08-01T11:44:05;2.70;;;1.10;;
12348;SDS011;5974;42.710;27.258;2022-08-01T11:46:51;3.33;;;1.03;;
12348;SDS011;5974;42.710;27.258;2022-08-01T11:52:10;1.23;;;1.07;;
12348;SDS011;5974;42.710;27.258;2022-08-01T11:54:39;2.63;;;1.20;;
12348;SDS011;5974;42.710;27.258;2022-08-01T11:57:07;4.10;;;1.20;;
12348;SDS011;5974;42.710;27.258;2022-08-01T11:59:39;1.43;;;1.20;;
12348;SDS011;5974;42.710;27.258;2022-08-01T12:02:15;2.27;;;1.20;;
12348;SDS011;5974;42.710;27.258;2022-08-01T12:04:46;5.40;;;1.43;;
12348;SDS011;5974;42.710;27.258;2022-08-01T12:07:13;2.67;;;1.27;;
12348;SDS011;5974;42.710;27.258;2022-08-01T12:09:40;1.40;;;1.30;;
12348;SDS011;5974;42.710;27.258;2022-08-01T12:12:06;2.00;;;1.40;;
12348;SDS011;5974;42.710;27.258;2022-08-01T12:14:33;2.30;;;1.23;;
12348;SDS011;5974;42.710;27.258;2022-08-01T12:17:01;2.37;;;1.17;;
12348;SDS011;5974;42.710;27.258;2022-08-01T12:19:28;1.90;;;1.30;;
12348;SDS011;5974;42.710;27.258;2022-08-01T12:22:07;3.00;;;1.10;;
12348;SDS011;5974;42.710;27.258;2022-08-01T12:24:34;3.93;;;1.60;;
12348;SDS011;5974;42.710;27.258;2022-08-01T12:27:01;1.47;;;1.20;;
12348;SDS011;5974;42.710;27.258;2022-08-01T12:29:31;1.70;;;1.60;;
12348;SDS011;5974;42.710;27.258;2022-08-01T12:31:58;1.60;;;1.33;;
12348;SDS011;5974;42.710;27.258;2022-08-01T12:34:26;1.20;;;1.20;;
12348;SDS011;5974;42.710;27.258;2022-08-01T12:36:54;2.27;;;1.30;;
12348;SDS011;5974;42.710;27.258;2022-08-01T12:39:21;1.60;;;1.50;;
12348;SDS011;5974;42.710;27.258;2022-08-01T12:41:47;1.70;;;1.30;;
12348;SDS011;5974;42.710;27.258;2022-08-01T12:44:14;1.70;;;1.30;;
12348;SDS011;5974;42.710;27.258;2022-08-01T12:46:41;1.83;;;1.23;;
12348;SDS011;5974;42.710;27.258;2022-08-01T12:49:08;6.90;;;1.50;;
12348;SDS011;5974;42.710;27.258;2022-08-01T12:51:36;2.20;;;1.23;;
12348;SDS011;5974;42.710;27.258;2022-08-01T12:54:03;2.40;;;1.40;;
12348;SDS011;5974;42.710;27.258;2022-08-01T12:56:33;4.60;;;1.63;;
12348;SDS011;5974;42.710;27.258;2022-08-01T12:59:00;2.47;;;1.20;;
12348;SDS011;5974;42.710;27.258;2022-08-01T13:01:27;17.50;;;3.30;;
12348;SDS011;5974;42.710;27.258;2022-08-01T13:03:57;1.60;;;1.50;;
12348;SDS011;5974;42.710;27.258;2022-08-01T13:06:24;3.47;;;1.50;;
12348;SDS011;5974;42.710;27.258;2022-08-01T13:08:55;1.80;;;1.30;;
12348;SDS011;5974;42.710;27.258;2022-08-01T13:11:30;1.50;;;1.37;;
12348;SDS011;5974;42.710;27.258;2022-08-01T13:13:57;2.07;;;1.50;;
12348;SDS011;5974;42.710;27.258;2022-08-01T13:16:24;2.30;;;1.40;;
12348;SDS011;5974;42.710;27.258;2022-08-01T13:18:51;1.30;;;1.20;;
12348;SDS011;5974;42.710;27.258;2022-08-01T13:21:19;3.43;;;1.47;;
12348;SDS011;5974;42.710;27.258;2022-08-01T13:24:01;1.30;;;1.30;;
12348;SDS011;5974;42.710;27.258;2022-08-01T13:26:37;3.63;;;1.30;;
12348;SDS011;5974;42.710;27.258;2022-08-01T13:29:04;3.60;;;1.57;;
12348;SDS011;5974;42.710;27.258;2022-08-01T13:31:32;1.20;;;1.20;;
12348;SDS011;5974;42.710;27.258;2022-08-01T13:33:59;2.27;;;1.80;;
12348;SDS011;5974;42.710;27.258;2022-08-01T13:36:25;2.20;;;1.47;;
12348;SDS011;5974;42.710;27.258;2022-08-01T13:38:53;2.27;;;1.60;;
12348;SDS011;5974;42.710;27.258;2022-08-01T13:41:39;1.87;;;1.50;;
12348;SDS011;5974;42.710;27.258;2022-08-01T13:44:05;1.80;;;1.70;;
12348;SDS011;5974;42.710;27.258;2022-08-01T13:46:34;1.93;;;1.57;;
12348;SDS011;5974;42.710;27.258;2022-08-01T13:49:00;2.27;;;1.40;;
12348;SDS011;5974;42.710;27.258;2022-08-01T13:51:27;5.50;;;1.73;;
12348;SDS011;5974;42.710;27.258;2022-08-01T13:53:53;6.13;;;1.73;;
12348;SDS011;5974;42.710;27.258;2022-08-01T13:56:20;1.57;;;1.57;;
12348;SDS011;5974;42.710;27.258;2022-08-01T13:58:48;1.90;;;1.80;;
12348;SDS011;5974;42.710;27.258;2022-08-01T14:01:14;2.63;;;1.70;;
12348;SDS011;5974;42.710;27.258;2022-08-01T14:03:41;1.77;;;1.67;;
12348;SDS011;5974;42.710;27.258;2022-08-01T14:06:08;2.70;;;1.80;;
12348;SDS011;5974;42.710;27.258;2022-08-01T14:08:34;3.57;;;1.77;;
12348;SDS011;5974;42.710;27.258;2022-08-01T14:11:01;1.80;;;1.70;;
12348;SDS011;5974;42.710;27.258;2022-08-01T14:13:27;3.47;;;1.77;;
12348;SDS011;5974;42.710;27.258;2022-08-01T14:15:55;3.90;;;1.80;;
12348;SDS011;5974;42.710;27.258;2022-08-01T14:18:22;2.20;;;1.93;;
12348;SDS011;5974;42.710;27.258;2022-08-01T14:20:49;3.83;;;2.10;;
12348;SDS011;5974;42.710;27.258;2022-08-01T14:23:15;4.10;;;1.93;;
12348;SDS011;5974;42.710;27.258;2022-08-01T14:25:42;1.90;;;1.80;;
12348;SDS011;5974;42.710;27.258;2022-08-01T14:28:09;5.50;;;2.03;;
12348;SDS011;5974;42.710;27.258;2022-08-01T14:30:35;8.17;;;2.20;;
12348;SDS011;5974;42.710;27.258;2022-08-01T14:33:04;6.90;;;1.90;;
12348;SDS011;5974;42.710;27.258;2022-08-01T14:35:31;2.00;;;1.90;;
12348;SDS011;5974;42.710;27.258;2022-08-01T14:37:57;2.30;;;2.10;;
12348;SDS011;5974;42.710;27.258;2022-08-01T14:40:24;3.40;;;2.10;;
12348;SDS011;5974;42.710;27.258;2022-08-01T14:42:50;2.57;;;2.40;;
12348;SDS011;5974;42.710;27.258;2022-08-01T14:45:17;2.40;;;2.23;;
12348;SDS011;5974;42.710;27.258;2022-08-01T14:47:43;3.03;;;2.00;;
12348;SDS011;5974;42.710;27.258;2022-08-01T14:50:12;4.07;;;2.30;;
12348;SDS011;5974;42.710;27.258;2022-08-01T14:52:39;4.13;;;2.10;;
12348;SDS011;5974;42.710;27.258;2022-08-01T14:55:07;3.33;;;1.90;;
12348;SDS011;5974;42.710;27.258;2022-08-01T14:57:33;2.20;;;2.00;;
12348;SDS011;5974;42.710;27.258;2022-08-01T15:00:00;4.07;;;2.13;;
12348;SDS011;5974;42.710;27.258;2022-08-01T15:02:27;2.20;;;2.10;;
12348;SDS011;5974;42.710;27.258;2022-08-01T15:04:54;3.37;;;2.00;;